Time;durP1;ratioP1;P1;durP2;ratioP2;P2;SDS_P1;SDS_P2;PMS_P1;PMS_P2;Temp;Humidity;BMP_temperature;BMP_pressure;BME280_temperature;BME280_humidity;BME280_pressure;Samples;Min_cycle;Max_cycle;Signal;HPM_P1;HPM_P2
2022/05/30 00:00:39;;;;;;;4.07;2.75;;;11.30;77.10;;;;;;5040379;28;20416;-85
2022/05/30 00:03:06;;;;;;;9.60;3.40;;;11.30;77.00;;;;;;5040506;28;20695;-85
2022/05/30 00:05:32;;;;;;;7.93;3.97;;;11.30;77.20;;;;;;5033379;28;20276;-85
2022/05/30 00:07:59;;;;;;;3.92;3.22;;;11.20;77.90;;;;;;5042126;28;20234;-87
2022/05/30 00:10:24;;;;;;;5.25;3.22;;;11.20;77.80;;;;;;5050491;28;20181;-85
2022/05/30 00:12:50;;;;;;;7.70;4.57;;;11.20;77.90;;;;;;5051391;28;20614;-85
2022/05/30 00:15:18;;;;;;;8.53;3.80;;;11.20;78.30;;;;;;5035576;28;20170;-85
2022/05/30 00:17:44;;;;;;;8.88;4.45;;;11.10;78.80;;;;;;5049229;28;20435;-85
2022/05/30 00:20:13;;;;;;;12.60;4.50;;;11.10;78.70;;;;;;5049158;28;20648;-86
2022/05/30 00:22:39;;;;;;;5.90;4.05;;;11.10;78.50;;;;;;5046186;28;20711;-86
2022/05/30 00:25:05;;;;;;;5.93;3.73;;;11.00;78.60;;;;;;5047316;28;20232;-86
2022/05/30 00:27:31;;;;;;;4.90;4.03;;;11.00;78.70;;;;;;5040626;28;20177;-86
2022/05/30 00:29:57;;;;;;;6.93;2.95;;;11.00;79.00;;;;;;5047437;28;20188;-86
2022/05/30 00:32:24;;;;;;;6.27;2.90;;;10.90;79.00;;;;;;5041054;28;20209;-85
2022/05/30 00:34:50;;;;;;;7.65;3.60;;;10.90;79.40;;;;;;5040941;28;20436;-85
2022/05/30 00:37:16;;;;;;;4.50;2.50;;;10.90;79.20;;;;;;5055789;28;20235;-86
2022/05/30 00:39:42;;;;;;;6.15;3.25;;;10.90;79.40;;;;;;5057876;28;20195;-86
2022/05/30 00:42:15;;;;;;;5.30;3.20;;;10.90;80.10;;;;;;5037992;28;20294;-87
2022/05/30 00:44:42;;;;;;;6.88;3.58;;;10.90;80.20;;;;;;5049627;28;21097;-85
2022/05/30 00:47:09;;;;;;;8.02;3.35;;;10.80;80.50;;;;;;5038734;28;20187;-85
2022/05/30 00:49:36;;;;;;;8.10;2.88;;;10.90;80.30;;;;;;5045060;28;20189;-85
2022/05/30 00:52:05;;;;;;;7.38;3.30;;;11.00;78.50;;;;;;5034440;28;20206;-85
2022/05/30 00:54:54;;;;;;;5.32;3.10;;;10.90;79.20;;;;;;5045236;28;20201;-87
2022/05/30 00:57:22;;;;;;;7.47;3.38;;;10.80;79.70;;;;;;5047686;28;20174;-85
2022/05/30 00:59:53;;;;;;;11.73;3.65;;;10.80;80.30;;;;;;5044614;28;20174;-87
2022/05/30 01:02:21;;;;;;;4.70;3.28;;;10.80;80.40;;;;;;5050089;28;20288;-85
2022/05/30 01:07:32;;;;;;;5.90;2.83;;;10.80;79.90;;;;;;5055763;28;20184;-84
2022/05/30 01:10:00;;;;;;;8.02;3.08;;;10.80;80.10;;;;;;5043177;28;20186;-85
2022/05/30 01:12:56;;;;;;;7.38;3.40;;;10.70;80.20;;;;;;5064996;28;20231;-85
2022/05/30 01:15:27;;;;;;;7.13;3.42;;;10.80;81.10;;;;;;5057232;28;20190;-85
2022/05/30 01:18:06;;;;;;;6.63;3.90;;;10.80;81.80;;;;;;5057707;28;20226;-85
2022/05/30 01:21:15;;;;;;;6.93;3.78;;;10.70;81.50;;;;;;5066508;28;20184;-85
2022/05/30 01:24:00;;;;;;;4.75;2.70;;;10.70;81.60;;;;;;5070003;28;20235;-84
2022/05/30 01:26:57;;;;;;;8.15;3.58;;;10.70;82.00;;;;;;5067389;28;20178;-84
2022/05/30 01:29:32;;;;;;;13.10;3.90;;;10.70;82.60;;;;;;5065265;28;20232;-85
2022/05/30 01:31:58;;;;;;;8.90;3.28;;;10.60;82.30;;;;;;5080090;28;20639;-85
2022/05/30 01:34:26;;;;;;;5.10;3.37;;;10.60;82.30;;;;;;5053129;28;20614;-85
2022/05/30 01:36:53;;;;;;;8.15;3.88;;;10.60;83.00;;;;;;5048061;28;20511;-85
2022/05/30 01:39:19;;;;;;;6.30;2.95;;;10.60;83.00;;;;;;5045589;28;20181;-85
2022/05/30 01:41:46;;;;;;;6.20;3.70;;;10.60;83.10;;;;;;5047831;28;20204;-84
2022/05/30 01:44:12;;;;;;;8.50;3.70;;;10.60;83.10;;;;;;5066225;28;20184;-85
2022/05/30 01:46:38;;;;;;;7.75;3.75;;;10.60;82.90;;;;;;5044794;28;20184;-85
2022/05/30 01:49:04;;;;;;;6.63;3.70;;;10.50;82.80;;;;;;5042395;28;20540;-84
2022/05/30 01:51:30;;;;;;;5.82;3.50;;;10.50;82.40;;;;;;5058090;28;20569;-85
2022/05/30 01:53:56;;;;;;;6.20;3.13;;;10.50;82.40;;;;;;5038333;28;20184;-85
2022/05/30 01:56:22;;;;;;;5.13;3.30;;;10.50;83.10;;;;;;5053148;28;20424;-85
2022/05/30 01:58:47;;;;;;;7.63;3.55;;;10.50;83.10;;;;;;5048520;28;20185;-84
2022/05/30 02:01:22;;;;;;;7.10;3.87;;;10.50;82.90;;;;;;5053748;28;20644;-85
2022/05/30 02:03:50;;;;;;;6.63;4.90;;;10.50;83.10;;;;;;5036199;28;20178;-85
2022/05/30 02:06:16;;;;;;;11.60;4.50;;;10.50;83.60;;;;;;5048736;28;20173;-86
2022/05/30 02:08:42;;;;;;;7.35;3.85;;;10.40;83.20;;;;;;5049947;28;20245;-86
2022/05/30 02:11:10;;;;;;;9.27;3.70;;;10.50;83.20;;;;;;5055762;28;20245;-86
2022/05/30 02:13:37;;;;;;;8.27;3.92;;;10.50;83.40;;;;;;5055054;28;20284;-85
2022/05/30 02:18:49;;;;;;;9.40;4.00;;;10.40;84.00;;;;;;5051752;28;20204;-86
2022/05/30 02:21:15;;;;;;;7.43;4.00;;;10.30;84.40;;;;;;5048006;28;20177;-86
2022/05/30 02:23:41;;;;;;;7.93;4.27;;;10.30;84.50;;;;;;5059996;28;20538;-85
2022/05/30 02:26:07;;;;;;;10.90;4.53;;;10.30;84.70;;;;;;5049716;28;20424;-85
2022/05/30 02:28:33;;;;;;;11.77;5.10;;;10.30;84.50;;;;;;5048785;28;20208;-85
2022/05/30 02:30:58;;;;;;;13.00;4.30;;;10.30;84.70;;;;;;5048836;28;20181;-84
2022/05/30 02:38:52;;;;;;;10.52;4.80;;;10.30;84.80;;;;;;5055489;28;20219;-85
2022/05/30 02:41:18;;;;;;;10.50;4.60;;;10.20;84.90;;;;;;5038345;28;20637;-87
2022/05/30 02:43:44;;;;;;;6.13;3.97;;;10.20;84.80;;;;;;5047901;28;20204;-86
2022/05/30 02:46:10;;;;;;;7.03;4.15;;;10.20;84.90;;;;;;5048830;28;20189;-87
2022/05/30 02:48:36;;;;;;;10.25;4.10;;;10.20;85.00;;;;;;5045562;28;20206;-84
2022/05/30 02:51:03;;;;;;;12.00;3.93;;;10.10;84.70;;;;;;5054976;28;20254;-84
2022/05/30 02:53:28;;;;;;;22.38;5.45;;;10.20;84.10;;;;;;5044059;28;20541;-85
2022/05/30 02:55:54;;;;;;;7.90;4.97;;;10.20;83.90;;;;;;5047236;28;20657;-85
2022/05/30 02:58:20;;;;;;;10.57;4.90;;;10.10;83.90;;;;;;5045940;28;20181;-87
2022/05/30 03:00:46;;;;;;;8.53;4.10;;;10.10;84.40;;;;;;5046076;28;20447;-85
2022/05/30 03:03:11;;;;;;;10.20;4.77;;;10.10;84.10;;;;;;5049460;28;20443;-85
2022/05/30 03:05:39;;;;;;;10.20;5.00;;;10.10;84.40;;;;;;5050242;28;20182;-86
2022/05/30 03:08:06;;;;;;;16.52;4.65;;;10.10;84.20;;;;;;5058091;28;20177;-85
2022/05/30 03:10:32;;;;;;;12.75;4.75;;;10.10;84.40;;;;;;5049221;28;20278;-86
2022/05/30 03:12:58;;;;;;;12.25;5.00;;;10.10;84.50;;;;;;5052777;28;20189;-84
2022/05/30 03:15:24;;;;;;;7.03;4.97;;;10.10;84.90;;;;;;5058927;28;20228;-84
2022/05/30 03:17:51;;;;;;;8.07;4.57;;;10.10;85.20;;;;;;5061212;28;20432;-85
2022/05/30 03:20:18;;;;;;;8.90;4.65;;;10.10;85.10;;;;;;5047539;28;20437;-85
2022/05/30 03:22:44;;;;;;;8.65;3.35;;;10.10;85.50;;;;;;5069450;28;20210;-85
2022/05/30 03:25:10;;;;;;;17.97;4.87;;;10.10;85.60;;;;;;5067920;28;20194;-85
2022/05/30 03:27:36;;;;;;;18.05;5.15;;;10.10;85.20;;;;;;5075182;28;20423;-86
2022/05/30 03:30:02;;;;;;;8.50;4.20;;;10.10;84.20;;;;;;5075959;28;20205;-85
2022/05/30 03:32:28;;;;;;;11.10;3.97;;;10.20;83.40;;;;;;5075802;28;20243;-85
2022/05/30 03:34:54;;;;;;;7.00;3.47;;;10.10;83.10;;;;;;5070432;28;20202;-85
2022/05/30 03:37:20;;;;;;;12.43;4.00;;;10.20;83.50;;;;;;5054757;28;20186;-85
2022/05/30 03:39:45;;;;;;;8.97;3.67;;;10.20;83.10;;;;;;5039990;28;20554;-86
2022/05/30 03:42:14;;;;;;;14.97;4.07;;;10.20;82.20;;;;;;5042635;28;20451;-84
2022/05/30 03:44:44;;;;;;;8.80;3.80;;;10.20;81.10;;;;;;5052894;28;20270;-85
2022/05/30 03:47:10;;;;;;;7.00;3.20;;;10.30;79.80;;;;;;5053817;28;20262;-85
2022/05/30 03:49:35;;;;;;;11.57;3.20;;;10.40;79.20;;;;;;5052349;28;20196;-85
2022/05/30 03:52:01;;;;;;;7.80;2.80;;;10.40;79.50;;;;;;5045984;28;20739;-84
2022/05/30 03:54:27;;;;;;;10.10;3.50;;;10.40;79.40;;;;;;5049260;28;20174;-85
2022/05/30 03:56:53;;;;;;;10.47;3.00;;;10.40;79.20;;;;;;5040849;28;20212;-85
2022/05/30 03:59:19;;;;;;;12.67;4.13;;;10.50;80.50;;;;;;5049014;28;20420;-85
2022/05/30 04:01:49;;;;;;;9.93;4.27;;;10.50;79.80;;;;;;5032672;28;20440;-85
2022/05/30 04:04:15;;;;;;;12.02;4.00;;;10.60;79.10;;;;;;5042297;28;20439;-85
2022/05/30 04:06:41;;;;;;;8.52;3.75;;;10.60;79.20;;;;;;5038220;28;20184;-84
2022/05/30 04:09:08;;;;;;;9.93;4.50;;;10.70;78.60;;;;;;5054712;28;20181;-85
2022/05/30 04:11:35;;;;;;;14.25;4.47;;;10.70;78.50;;;;;;5052373;28;20482;-85
2022/05/30 04:14:02;;;;;;;16.80;4.45;;;10.80;78.00;;;;;;5046519;28;20665;-85
2022/05/30 04:16:28;;;;;;;6.57;3.27;;;10.90;76.10;;;;;;5035739;28;20176;-85
2022/05/30 04:18:53;;;;;;;15.60;4.03;;;11.00;75.20;;;;;;5040572;28;20176;-85
2022/05/30 04:21:19;;;;;;;9.70;3.20;;;11.00;75.10;;;;;;5049079;28;20857;-84
2022/05/30 04:24:04;;;;;;;8.33;3.50;;;10.90;75.80;;;;;;5044444;28;21006;-85
2022/05/30 04:26:30;;;;;;;7.57;3.10;;;11.00;75.30;;;;;;5042534;28;20215;-85
2022/05/30 04:28:56;;;;;;;11.07;3.60;;;11.00;75.10;;;;;;5043635;28;20178;-84
2022/05/30 04:31:21;;;;;;;11.43;2.93;;;10.90;75.50;;;;;;5040497;28;21083;-85
2022/05/30 04:33:47;;;;;;;10.30;3.37;;;11.00;74.90;;;;;;5035829;28;20209;-83
2022/05/30 04:36:15;;;;;;;10.10;3.03;;;11.00;75.90;;;;;;5051491;28;20176;-85
2022/05/30 04:38:40;;;;;;;10.40;3.05;;;11.00;76.30;;;;;;5052827;28;20184;-84
2022/05/30 04:41:06;;;;;;;7.77;3.03;;;11.10;74.70;;;;;;5044268;28;20178;-85
2022/05/30 04:43:32;;;;;;;6.90;2.83;;;11.10;74.70;;;;;;5044026;28;20317;-84
2022/05/30 04:46:19;;;;;;;5.93;2.97;;;11.10;75.00;;;;;;5045628;28;20598;-85
2022/05/30 04:48:46;;;;;;;6.05;3.30;;;11.10;74.10;;;;;;5051885;28;20171;-84
2022/05/30 04:51:12;;;;;;;9.52;2.45;;;11.10;74.40;;;;;;5060228;28;20619;-84
2022/05/30 04:53:38;;;;;;;8.30;2.72;;;11.10;75.20;;;;;;5045388;28;20201;-84
2022/05/30 04:56:04;;;;;;;8.32;3.10;;;11.10;75.30;;;;;;5045170;28;20185;-83
2022/05/30 04:58:32;;;;;;;9.13;3.08;;;11.20;74.00;;;;;;5045031;28;20181;-84
2022/05/30 05:00:59;;;;;;;7.15;3.10;;;11.30;72.20;;;;;;5055242;28;20201;-84
2022/05/30 05:03:27;;;;;;;8.85;2.53;;;11.40;71.10;;;;;;5054212;28;20197;-84
2022/05/30 05:06:13;;;;;;;10.52;4.78;;;11.50;71.80;;;;;;5064276;28;20209;-85
2022/05/30 05:08:51;;;;;;;5.18;2.65;;;11.40;72.00;;;;;;5065782;28;20306;-86
2022/05/30 05:11:29;;;;;;;8.55;3.00;;;11.50;72.50;;;;;;5069142;28;20231;-84
2022/05/30 05:13:55;;;;;;;7.13;2.78;;;11.60;72.10;;;;;;5045566;28;20231;-85
2022/05/30 05:16:27;;;;;;;13.35;3.67;;;11.80;69.90;;;;;;5044876;28;20210;-85
2022/05/30 05:18:53;;;;;;;17.50;3.15;;;11.80;69.90;;;;;;5046301;28;20177;-85
2022/05/30 05:21:26;;;;;;;6.88;2.58;;;11.80;70.30;;;;;;5060829;28;20190;-85
2022/05/30 05:23:52;;;;;;;8.43;3.40;;;11.80;70.10;;;;;;5059976;28;20174;-85
2022/05/30 05:26:19;;;;;;;7.43;3.10;;;11.90;69.90;;;;;;5063252;28;20182;-86
2022/05/30 05:28:46;;;;;;;7.55;3.50;;;12.00;69.90;;;;;;5053587;28;20178;-85
2022/05/30 05:31:25;;;;;;;7.43;3.35;;;12.10;69.60;;;;;;5053653;28;20181;-85
2022/05/30 05:33:52;;;;;;;11.00;3.28;;;12.20;69.00;;;;;;5048548;28;20758;-86
2022/05/30 05:36:24;;;;;;;5.45;2.90;;;12.30;68.70;;;;;;5058925;28;20170;-86
2022/05/30 05:38:50;;;;;;;12.27;3.22;;;12.40;67.60;;;;;;5050932;28;20673;-86
2022/05/30 05:41:16;;;;;;;5.28;2.70;;;12.50;66.40;;;;;;5044959;28;20258;-85
2022/05/30 05:43:42;;;;;;;7.80;2.73;;;12.60;64.50;;;;;;5055055;28;20200;-84
2022/05/30 05:46:15;;;;;;;8.90;2.83;;;12.60;64.10;;;;;;5053932;28;20177;-84
2022/05/30 05:48:40;;;;;;;4.20;2.45;;;12.70;64.70;;;;;;5047583;28;20436;-87
2022/05/30 05:51:06;;;;;;;4.03;2.10;;;12.80;65.20;;;;;;5058730;28;20189;-87
2022/05/30 05:53:32;;;;;;;6.70;3.23;;;13.10;65.00;;;;;;5059787;28;20314;-86
2022/05/30 05:55:58;;;;;;;6.80;2.40;;;13.20;63.10;;;;;;5050285;28;20555;-84
2022/05/30 05:58:23;;;;;;;11.53;2.73;;;13.60;62.50;;;;;;5048096;28;20424;-86
2022/05/30 06:00:49;;;;;;;5.93;2.10;;;13.80;62.00;;;;;;5043210;28;20174;-85
2022/05/30 06:03:15;;;;;;;9.20;2.60;;;14.40;61.50;;;;;;5053939;28;20197;-87
2022/05/30 06:05:40;;;;;;;4.67;2.17;;;15.10;60.60;;;;;;5046360;28;20180;-86
2022/05/30 06:08:06;;;;;;;6.57;2.40;;;15.80;58.80;;;;;;5046258;28;20246;-86
2022/05/30 06:11:04;;;;;;;8.80;2.40;;;16.70;54.20;;;;;;5047328;28;20174;-84
2022/05/30 06:13:18;;;;;;;4.75;2.00;;;17.10;52.20;;;;;;5046321;28;20205;-86
2022/05/30 06:15:44;;;;;;;4.60;2.30;;;17.70;50.40;;;;;;5056760;28;20230;-87
2022/05/30 06:18:11;;;;;;;3.37;1.40;;;18.10;44.90;;;;;;5060465;28;20271;-87
2022/05/30 06:20:37;;;;;;;2.85;1.40;;;18.40;44.00;;;;;;5058967;28;20182;-86
2022/05/30 06:23:03;;;;;;;5.17;2.00;;;18.60;42.30;;;;;;5048206;28;20252;-87
2022/05/30 06:25:28;;;;;;;4.53;1.40;;;18.70;43.50;;;;;;5054676;28;20916;-86
2022/05/30 06:27:54;;;;;;;3.90;1.70;;;18.40;44.20;;;;;;5082889;28;20181;-87
2022/05/30 06:30:20;;;;;;;3.53;1.40;;;18.70;45.20;;;;;;5074112;28;20451;-86
2022/05/30 06:32:45;;;;;;;6.20;2.30;;;19.20;45.00;;;;;;5068023;28;20248;-86
2022/05/30 06:35:11;;;;;;;4.00;1.80;;;19.80;41.30;;;;;;5072197;28;20192;-85
2022/05/30 06:37:37;;;;;;;4.60;1.60;;;19.90;39.30;;;;;;5074166;28;20248;-86
2022/05/30 06:40:03;;;;;;;8.17;2.07;;;19.50;39.50;;;;;;5066079;28;20215;-87
2022/05/30 06:42:29;;;;;;;3.27;1.57;;;19.20;39.30;;;;;;5061202;28;20436;-86
2022/05/30 06:44:54;;;;;;;5.03;2.07;;;19.20;41.30;;;;;;5059221;28;20427;-86
2022/05/30 06:47:20;;;;;;;2.47;1.80;;;18.20;41.80;;;;;;5059168;28;20173;-86
2022/05/30 06:49:46;;;;;;;11.73;2.43;;;18.30;41.90;;;;;;5053923;28;20207;-87
2022/05/30 06:52:12;;;;;;;7.03;2.30;;;18.40;40.70;;;;;;5053472;28;20209;-87
2022/05/30 06:54:38;;;;;;;8.43;3.55;;;18.20;41.30;;;;;;5055219;28;20416;-87
2022/05/30 06:59:49;;;;;;;4.65;1.70;;;18.40;41.50;;;;;;5053762;28;20269;-87
2022/05/30 07:02:15;;;;;;;6.78;1.80;;;17.90;41.70;;;;;;5054546;28;20287;-87
2022/05/30 07:04:41;;;;;;;4.10;1.60;;;17.60;43.50;;;;;;5053001;28;20641;-87
2022/05/30 07:07:07;;;;;;;5.70;1.63;;;17.60;42.70;;;;;;5052858;28;20455;-85
2022/05/30 07:09:34;;;;;;;6.70;2.30;;;17.60;42.60;;;;;;5055837;28;20256;-86
2022/05/30 07:12:01;;;;;;;6.88;2.20;;;17.30;43.50;;;;;;5052332;28;20751;-86
2022/05/30 07:14:27;;;;;;;6.40;1.95;;;17.10;44.10;;;;;;5053016;28;20195;-87
2022/05/30 07:16:53;;;;;;;3.78;1.60;;;16.50;45.60;;;;;;5053680;28;20235;-84
2022/05/30 07:19:19;;;;;;;3.30;1.30;;;16.60;45.40;;;;;;5054342;28;20641;-86
2022/05/30 07:21:45;;;;;;;7.00;1.73;;;16.40;46.00;;;;;;5054843;28;20728;-88
2022/05/30 07:24:12;;;;;;;2.58;1.50;;;16.30;46.00;;;;;;5039778;28;20185;-87
2022/05/30 07:26:40;;;;;;;4.07;2.30;;;15.70;47.20;;;;;;5057308;28;20207;-87
2022/05/30 07:29:08;;;;;;;4.25;1.38;;;15.50;48.00;;;;;;5056994;28;20169;-88
2022/05/30 07:31:34;;;;;;;6.28;1.85;;;15.20;48.00;;;;;;5059632;28;20672;-87
2022/05/30 07:34:00;;;;;;;2.13;1.50;;;15.20;48.50;;;;;;5060251;28;20241;-86
2022/05/30 07:36:28;;;;;;;5.70;2.20;;;14.90;49.80;;;;;;5060217;28;20166;-86
2022/05/30 07:38:55;;;;;;;13.95;4.40;;;15.10;50.40;;;;;;5055596;28;20494;-87
2022/05/30 07:41:23;;;;;;;9.00;3.97;;;15.40;49.70;;;;;;5056801;28;20177;-87
2022/05/30 07:43:49;;;;;;;12.23;4.35;;;15.70;48.50;;;;;;5058781;28;20199;-87
2022/05/30 07:46:17;;;;;;;10.43;2.70;;;15.90;48.00;;;;;;5070487;28;20169;-86
2022/05/30 07:48:43;;;;;;;15.07;5.30;;;16.10;46.30;;;;;;5073671;28;20167;-86
2022/05/30 07:51:11;;;;;;;3.88;2.00;;;16.00;47.40;;;;;;5074798;28;20169;-86
2022/05/30 07:53:39;;;;;;;5.00;1.65;;;15.80;47.80;;;;;;5059386;28;20665;-85
2022/05/30 07:56:07;;;;;;;7.20;2.00;;;15.40;49.00;;;;;;5052855;28;20227;-86
2022/05/30 07:58:34;;;;;;;5.10;1.50;;;15.60;50.60;;;;;;5053899;28;20174;-86
2022/05/30 08:01:05;;;;;;;7.20;2.28;;;15.60;50.20;;;;;;5052528;28;20178;-87
2022/05/30 08:03:31;;;;;;;9.13;2.65;;;15.80;47.60;;;;;;5044649;28;20228;-85
2022/05/30 08:06:14;;;;;;;3.63;2.30;;;15.50;46.40;;;;;;5033064;28;20669;-85
2022/05/30 08:08:42;;;;;;;7.38;3.00;;;15.50;46.50;;;;;;5032345;28;20181;-85
2022/05/30 08:11:08;;;;;;;4.10;1.60;;;15.30;47.60;;;;;;5032885;28;20182;-85
2022/05/30 08:13:34;;;;;;;7.30;1.65;;;15.20;48.50;;;;;;5032761;28;20198;-83
2022/05/30 08:16:01;;;;;;;3.35;1.80;;;14.80;49.50;;;;;;5034011;28;20182;-88
2022/05/30 08:18:29;;;;;;;7.13;2.30;;;14.90;50.70;;;;;;5033530;28;20174;-86
2022/05/30 08:20:55;;;;;;;3.35;1.50;;;14.90;51.80;;;;;;5032484;28;20174;-86
2022/05/30 08:23:20;;;;;;;7.37;1.80;;;14.90;51.00;;;;;;5032409;28;20198;-86
2022/05/30 08:25:47;;;;;;;5.37;2.10;;;15.10;48.90;;;;;;5032752;28;20182;-84
2022/05/30 08:28:13;;;;;;;4.97;1.65;;;15.20;49.20;;;;;;5033485;28;20337;-86
2022/05/30 08:30:39;;;;;;;7.13;2.22;;;15.10;49.80;;;;;;5032177;28;20217;-85
2022/05/30 08:33:13;;;;;;;4.97;1.83;;;14.90;50.60;;;;;;5033475;28;20618;-86
2022/05/30 08:35:39;;;;;;;3.72;1.60;;;14.90;51.20;;;;;;5031942;28;20432;-87
2022/05/30 08:38:05;;;;;;;5.47;1.80;;;14.80;51.10;;;;;;5031896;28;20182;-86
2022/05/30 08:43:26;;;;;;;2.20;1.65;;;15.30;48.70;;;;;;5033726;28;20204;-86
2022/05/30 08:46:11;;;;;;;4.50;1.52;;;15.50;51.10;;;;;;5032390;28;20166;-86
2022/05/30 08:48:46;;;;;;;5.50;1.83;;;15.80;47.50;;;;;;5048185;28;20181;-86
2022/05/30 08:51:42;;;;;;;4.88;1.50;;;15.60;47.60;;;;;;5053563;28;20169;-86
2022/05/30 08:54:29;;;;;;;4.13;1.85;;;15.40;46.90;;;;;;5053645;28;20173;-86
2022/05/30 08:57:00;;;;;;;5.40;2.20;;;15.30;48.30;;;;;;5051527;28;20556;-86
2022/05/30 08:59:50;;;;;;;3.25;1.88;;;15.50;47.60;;;;;;5054027;28;20166;-86
2022/05/30 09:02:30;;;;;;;6.07;1.50;;;15.50;47.60;;;;;;5052730;28;20201;-86
2022/05/30 09:05:35;;;;;;;6.25;1.55;;;15.40;49.30;;;;;;5052346;28;20176;-85
2022/05/30 09:08:06;;;;;;;7.43;1.60;;;15.00;49.50;;;;;;5035373;28;20660;-85
2022/05/30 09:10:38;;;;;;;4.40;1.65;;;14.70;49.80;;;;;;5035779;28;20185;-87
2022/05/30 09:13:21;;;;;;;7.00;1.48;;;14.50;50.70;;;;;;5053922;28;20247;-85
2022/05/30 09:16:03;;;;;;;3.28;1.75;;;14.30;50.70;;;;;;5052178;28;20344;-85
2022/05/30 09:18:50;;;;;;;2.65;1.80;;;14.50;51.00;;;;;;5051665;28;20173;-87
2022/05/30 09:21:18;;;;;;;3.53;2.05;;;14.60;50.90;;;;;;5051900;28;20169;-85
2022/05/30 09:23:44;;;;;;;4.95;2.10;;;14.90;51.20;;;;;;5052861;28;20721;-85
2022/05/30 09:26:16;;;;;;;2.95;2.00;;;15.40;50.90;;;;;;5051377;28;20687;-85
2022/05/30 09:28:44;;;;;;;7.13;2.35;;;15.70;51.00;;;;;;5051147;28;20218;-86
2022/05/30 09:31:18;;;;;;;6.28;1.70;;;15.90;51.50;;;;;;5051094;28;20285;-86
2022/05/30 09:33:51;;;;;;;5.35;2.45;;;15.80;50.00;;;;;;5050842;28;20275;-85
2022/05/30 09:36:21;;;;;;;5.35;2.40;;;15.80;50.30;;;;;;5055998;28;20207;-85
2022/05/30 09:38:56;;;;;;;6.93;2.42;;;16.00;51.10;;;;;;5054014;28;20173;-85
2022/05/30 09:41:46;;;;;;;5.57;1.60;;;16.10;50.50;;;;;;5054902;28;20207;-86
2022/05/30 09:44:18;;;;;;;9.27;2.10;;;16.00;49.20;;;;;;5038261;28;20219;-85
2022/05/30 09:47:17;;;;;;;8.90;1.75;;;16.00;49.40;;;;;;5056743;28;20657;-86
2022/05/30 09:49:54;;;;;;;5.93;2.05;;;16.30;49.50;;;;;;5055034;28;20188;-86
2022/05/30 09:52:35;;;;;;;7.38;2.35;;;16.40;49.40;;;;;;5056000;28;20235;-87
2022/05/30 09:55:44;;;;;;;8.98;2.30;;;16.30;48.00;;;;;;5059872;28;20167;-86
2022/05/30 09:58:10;;;;;;;2.83;1.90;;;15.60;49.10;;;;;;5062721;28;20185;-86
2022/05/30 10:00:49;;;;;;;7.70;1.80;;;15.80;51.10;;;;;;5061953;28;20174;-87
2022/05/30 10:03:35;;;;;;;6.35;1.83;;;16.00;51.30;;;;;;5062689;28;20996;-86
2022/05/30 10:06:23;;;;;;;3.60;1.60;;;16.10;50.60;;;;;;5062187;28;20274;-86
2022/05/30 10:08:49;;;;;;;5.40;2.38;;;16.50;50.60;;;;;;5055844;28;20256;-88
2022/05/30 10:11:33;;;;;;;5.10;1.93;;;16.50;49.60;;;;;;5056090;28;20231;-86
2022/05/30 10:13:59;;;;;;;3.95;2.10;;;16.40;49.80;;;;;;5054458;28;20173;-86
2022/05/30 10:16:34;;;;;;;4.15;2.13;;;16.20;48.40;;;;;;5043955;28;20196;-86
2022/05/30 10:19:09;;;;;;;6.30;1.92;;;16.40;50.30;;;;;;5035033;28;20621;-86
2022/05/30 10:28:34;;;;;;;5.10;1.90;;;16.70;45.50;;;;;;5039864;28;20201;-86
2022/05/30 10:31:05;;;;;;;4.10;2.00;;;16.70;46.10;;;;;;5041573;28;20181;-86
2022/05/30 10:33:47;;;;;;;4.00;2.05;;;16.60;48.30;;;;;;5036840;28;20213;-86
2022/05/30 10:36:29;;;;;;;7.93;2.40;;;16.50;49.10;;;;;;5036998;28;20245;-87
2022/05/30 10:39:13;;;;;;;5.22;2.10;;;16.70;46.00;;;;;;5033903;28;20204;-85
2022/05/30 10:42:12;;;;;;;4.30;2.00;;;16.80;44.40;;;;;;5047422;28;20185;-87
2022/05/30 10:44:43;;;;;;;2.80;1.30;;;16.90;43.60;;;;;;5037458;28;20186;-86
2022/05/30 10:47:32;;;;;;;6.85;2.38;;;16.60;46.40;;;;;;5053511;28;20606;-85
2022/05/30 10:50:52;;;;;;;2.90;1.67;;;16.80;45.10;;;;;;5053386;28;20184;-86
2022/05/30 10:53:30;;;;;;;3.90;1.73;;;17.00;45.00;;;;;;5032035;28;20228;-85
2022/05/30 10:56:02;;;;;;;8.63;2.88;;;16.60;46.50;;;;;;5034287;28;20196;-86
2022/05/30 10:58:39;;;;;;;5.07;2.08;;;16.60;45.80;;;;;;5035150;28;20176;-86
2022/05/30 11:01:27;;;;;;;6.13;2.30;;;16.50;45.20;;;;;;5033550;28;20169;-86
2022/05/30 11:04:08;;;;;;;4.82;1.77;;;16.50;45.90;;;;;;5046004;28;20188;-86
2022/05/30 11:06:39;;;;;;;7.40;1.60;;;16.70;44.70;;;;;;5054335;28;20165;-85
2022/05/30 11:09:12;;;;;;;5.13;2.20;;;16.80;46.90;;;;;;5053386;28;20181;-87
2022/05/30 11:11:51;;;;;;;3.75;2.00;;;16.80;46.20;;;;;;5053668;28;20258;-85
2022/05/30 11:14:47;;;;;;;3.22;1.80;;;16.70;47.70;;;;;;5053742;28;20698;-87
2022/05/30 11:17:40;;;;;;;3.33;1.67;;;16.70;46.80;;;;;;5032685;28;20166;-85
2022/05/30 11:20:18;;;;;;;6.55;2.67;;;16.90;47.20;;;;;;5050222;28;20181;-85
2022/05/30 11:22:51;;;;;;;6.50;2.30;;;16.90;48.10;;;;;;5055199;28;20248;-85
2022/05/30 11:25:53;;;;;;;5.47;2.30;;;16.90;47.70;;;;;;5054097;28;20260;-86
2022/05/30 11:28:19;;;;;;;5.68;2.15;;;16.90;47.70;;;;;;5054800;28;20223;-88
2022/05/30 11:30:59;;;;;;;5.30;2.37;;;17.00;48.90;;;;;;5054620;28;20232;-86
2022/05/30 11:33:49;;;;;;;5.10;2.30;;;16.90;49.50;;;;;;5056570;28;20463;-86
2022/05/30 11:36:49;;;;;;;6.97;2.42;;;17.00;49.50;;;;;;5056117;28;20173;-87
2022/05/30 11:39:26;;;;;;;5.40;2.15;;;17.10;49.40;;;;;;5056256;28;20184;-85
2022/05/30 11:42:10;;;;;;;11.30;3.10;;;16.90;49.20;;;;;;5057483;28;20201;-86
2022/05/30 11:44:45;;;;;;;9.55;2.92;;;16.90;49.60;;;;;;5056093;28;20636;-86
2022/05/30 11:47:31;;;;;;;5.75;2.55;;;17.20;48.70;;;;;;5054201;28;20189;-86
2022/05/30 11:50:22;;;;;;;4.00;2.08;;;17.20;48.60;;;;;;5054485;28;20192;-85
2022/05/30 11:53:09;;;;;;;4.43;2.40;;;17.40;48.00;;;;;;5054232;28;20587;-87
2022/05/30 11:55:48;;;;;;;9.20;3.20;;;17.60;46.80;;;;;;5054696;28;20173;-86
2022/05/30 11:58:44;;;;;;;11.18;2.70;;;17.80;47.70;;;;;;5053697;28;20181;-85
2022/05/30 12:01:11;;;;;;;6.70;2.40;;;18.00;47.30;;;;;;5076923;22;20292;-90
2022/05/30 12:04:08;;;;;;;3.83;2.35;;;18.00;46.30;;;;;;5063632;28;20181;-90
2022/05/30 12:07:03;;;;;;;5.80;2.30;;;17.90;44.50;;;;;;5065281;28;20236;-90
2022/05/30 12:10:03;;;;;;;8.15;2.63;;;17.30;45.20;;;;;;5056796;28;20177;-90
2022/05/30 12:12:52;;;;;;;5.43;2.25;;;17.20;46.70;;;;;;5036210;28;20206;-91
2022/05/30 12:15:48;;;;;;;5.10;2.00;;;17.60;47.00;;;;;;5036434;28;20181;-91
2022/05/30 12:24:15;;;;;;;5.90;2.90;;;17.60;45.40;;;;;;5018860;28;20162;-90
2022/05/30 12:26:54;;;;;;;8.23;2.67;;;17.60;45.60;;;;;;5020499;28;20175;-90
2022/05/30 12:29:45;;;;;;;7.55;2.70;;;17.50;45.10;;;;;;5031346;28;20162;-90
2022/05/30 12:32:41;;;;;;;4.47;3.13;;;17.40;44.20;;;;;;5020411;28;20206;-90
2022/05/30 12:35:26;;;;;;;5.82;2.92;;;16.80;45.00;;;;;;5025604;28;20245;-91
2022/05/30 12:38:01;;;;;;;2.50;2.20;;;16.70;45.20;;;;;;5021741;28;20177;-91
2022/05/30 12:40:26;;;;;;;8.63;2.42;;;16.60;44.20;;;;;;5026230;28;20274;-92
2022/05/30 12:43:07;;;;;;;6.73;2.70;;;16.50;43.90;;;;;;5034000;28;20191;-89
2022/05/30 12:46:06;;;;;;;7.85;2.42;;;16.40;44.20;;;;;;5025993;28;20174;-90
2022/05/30 12:48:33;;;;;;;7.75;3.45;;;16.30;44.60;;;;;;5017241;28;20220;-90
2022/05/30 12:51:04;;;;;;;4.93;2.63;;;16.10;45.30;;;;;;5019459;28;20201;-90
2022/05/30 12:54:01;;;;;;;7.95;2.70;;;16.10;45.80;;;;;;5040202;28;20297;-91
2022/05/30 12:56:38;;;;;;;8.93;2.83;;;15.80;47.60;;;;;;5005565;28;20187;-91
2022/05/30 12:59:04;;;;;;;8.65;3.08;;;15.70;48.30;;;;;;5039127;28;20196;-91
2022/05/30 13:01:44;;;;;;;7.23;2.90;;;15.40;49.70;;;;;;5039634;28;20217;-91
2022/05/30 13:04:22;;;;;;;9.55;3.05;;;15.40;49.90;;;;;;5037850;28;20178;-91
2022/05/30 13:07:13;;;;;;;7.03;3.63;;;15.30;49.70;;;;;;5039826;28;20191;-91
2022/05/30 13:09:51;;;;;;;6.68;3.35;;;15.30;48.90;;;;;;5047343;28;20237;-90
2022/05/30 13:12:51;;;;;;;5.78;2.88;;;15.40;48.90;;;;;;5046945;28;20627;-91
2022/05/30 13:15:43;;;;;;;8.27;3.00;;;15.40;49.50;;;;;;5043723;28;20205;-90
2022/05/30 13:18:14;;;;;;;7.55;3.22;;;15.30;50.00;;;;;;5048065;28;20170;-91
2022/05/30 13:20:45;;;;;;;3.75;2.50;;;15.30;50.40;;;;;;5054372;28;20265;-91
2022/05/30 13:23:12;;;;;;;8.27;2.50;;;15.50;50.00;;;;;;5055877;28;20177;-91
2022/05/30 13:25:47;;;;;;;5.95;3.20;;;15.70;49.60;;;;;;5052543;28;20506;-91
2022/05/30 13:28:23;;;;;;;12.55;3.13;;;15.80;48.60;;;;;;5042675;28;20602;-91
2022/05/30 13:30:51;;;;;;;7.05;2.70;;;15.90;48.20;;;;;;5043503;28;20216;-90
2022/05/30 13:33:32;;;;;;;9.50;3.15;;;15.70;48.60;;;;;;5043065;28;20201;-90
2022/05/30 13:36:04;;;;;;;7.97;3.67;;;15.80;49.00;;;;;;5049271;28;20174;-91
2022/05/30 13:38:40;;;;;;;5.40;3.00;;;15.90;48.60;;;;;;5055844;28;20181;-92
2022/05/30 13:41:15;;;;;;;5.13;3.20;;;16.00;47.50;;;;;;5057551;28;20212;-91